Time;durP1;ratioP1;P1;durP2;ratioP2;P2;SDS_P1;SDS_P2;PMS_P1;PMS_P2;Temp;Humidity;BMP_temperature;BMP_pressure;BME280_temperature;BME280_humidity;BME280_pressure;Samples;Min_cycle;Max_cycle;Signal;HPM_P1;HPM_P2
2023/05/28 00:01:49;;;;;;;21.15;7.80;;;;;;;;;;5113262;28;20046;-78
2023/05/28 00:04:15;;;;;;;20.38;8.25;;;;;;;;;;5094817;28;20106;-78
2023/05/28 00:06:41;;;;;;;28.98;9.85;;;;;;;;;;5112755;28;20496;-78
2023/05/28 00:09:07;;;;;;;20.42;7.53;;;;;;;;;;5113146;28;20042;-77
2023/05/28 00:11:32;;;;;;;21.17;7.30;;;;;;;;;;5115162;28;20024;-76
2023/05/28 00:13:57;;;;;;;17.52;7.05;;;;;;;;;;5117256;28;20095;-78
2023/05/28 00:16:23;;;;;;;14.02;5.82;;;;;;;;;;5116901;28;20321;-79
2023/05/28 00:18:48;;;;;;;12.60;5.57;;;;;;;;;;5117246;28;20015;-79
2023/05/28 00:21:13;;;;;;;14.20;6.28;;;;;;;;;;5116562;28;20024;-79
2023/05/28 00:23:38;;;;;;;18.08;6.82;;;;;;;;;;5116419;28;20042;-79
2023/05/28 00:26:04;;;;;;;15.30;5.22;;;;;;;;;;5116715;28;20031;-78
2023/05/28 00:28:29;;;;;;;16.13;5.88;;;;;;;;;;5116591;28;20043;-78
2023/05/28 00:30:54;;;;;;;12.75;5.78;;;;;;;;;;5117047;28;20064;-79
2023/05/28 00:33:20;;;;;;;11.32;5.05;;;;;;;;;;5122397;28;20034;-78
2023/05/28 00:35:46;;;;;;;7.20;4.63;;;;;;;;;;5123697;28;20385;-79
2023/05/28 00:38:11;;;;;;;10.85;5.28;;;;;;;;;;5123292;28;20012;-78
2023/05/28 00:40:36;;;;;;;7.63;4.30;;;;;;;;;;5119039;28;20007;-79
2023/05/28 00:43:02;;;;;;;7.22;4.32;;;;;;;;;;5117863;28;20454;-78
2023/05/28 00:45:27;;;;;;;10.80;4.30;;;;;;;;;;5117359;28;20037;-78
2023/05/28 00:47:52;;;;;;;8.10;4.40;;;;;;;;;;5116591;28;20432;-78
2023/05/28 00:50:17;;;;;;;15.90;5.07;;;;;;;;;;5098551;28;20069;-78
2023/05/28 00:52:45;;;;;;;11.18;3.53;;;;;;;;;;5117303;28;20337;-78
2023/05/28 00:55:14;;;;;;;10.38;4.70;;;;;;;;;;5116271;28;20016;-78
2023/05/28 00:57:40;;;;;;;8.57;3.97;;;;;;;;;;5116227;28;20019;-78
2023/05/28 01:00:06;;;;;;;7.55;4.00;;;;;;;;;;5115800;28;20040;-78
2023/05/28 01:02:31;;;;;;;8.32;3.80;;;;;;;;;;5116120;28;20020;-77
2023/05/28 01:04:56;;;;;;;12.20;3.97;;;;;;;;;;5115587;28;20043;-79
2023/05/28 01:07:22;;;;;;;8.45;4.72;;;;;;;;;;5115869;28;20752;-77
2023/05/28 01:09:47;;;;;;;16.88;5.57;;;;;;;;;;5115697;28;20015;-78
2023/05/28 01:12:12;;;;;;;8.40;4.50;;;;;;;;;;5115711;28;20429;-79
2023/05/28 01:14:38;;;;;;;11.93;4.57;;;;;;;;;;5115413;28;20011;-79
2023/05/28 01:17:05;;;;;;;8.65;3.80;;;;;;;;;;5115653;28;20122;-77
2023/05/28 01:19:31;;;;;;;10.70;4.43;;;;;;;;;;5115530;28;20026;-78
2023/05/28 01:22:01;;;;;;;10.68;5.13;;;;;;;;;;5115242;28;20020;-77
2023/05/28 01:24:28;;;;;;;12.68;4.28;;;;;;;;;;5115111;28;20491;-78
2023/05/28 01:26:54;;;;;;;7.30;4.55;;;;;;;;;;5115421;28;20531;-78
2023/05/28 01:29:19;;;;;;;8.80;4.88;;;;;;;;;;5115142;28;20047;-77
2023/05/28 01:31:45;;;;;;;10.13;3.72;;;;;;;;;;5115075;28;20422;-77
2023/05/28 01:34:11;;;;;;;7.38;4.28;;;;;;;;;;5114909;28;20019;-79
2023/05/28 01:36:38;;;;;;;6.82;3.50;;;;;;;;;;5096612;28;20039;-77
2023/05/28 01:39:04;;;;;;;9.25;4.57;;;;;;;;;;5114993;28;20061;-79
2023/05/28 01:41:30;;;;;;;13.18;4.78;;;;;;;;;;5096580;28;20084;-78
2023/05/28 01:43:55;;;;;;;9.52;4.60;;;;;;;;;;5096821;28;20441;-78
2023/05/28 01:46:21;;;;;;;8.52;4.78;;;;;;;;;;5115331;28;20032;-80
2023/05/28 01:48:47;;;;;;;8.40;4.25;;;;;;;;;;5097290;28;20499;-79
2023/05/28 01:51:15;;;;;;;9.40;5.05;;;;;;;;;;5115735;28;20483;-77
2023/05/28 01:53:40;;;;;;;11.80;4.45;;;;;;;;;;5115508;28;20504;-77
2023/05/28 01:56:06;;;;;;;8.55;3.85;;;;;;;;;;5115201;28;20024;-76
2023/05/28 01:58:31;;;;;;;9.68;4.35;;;;;;;;;;5096505;28;20015;-76
2023/05/28 02:01:13;;;;;;;11.07;4.20;;;;;;;;;;5114887;28;20448;-78
2023/05/28 02:03:39;;;;;;;6.93;4.10;;;;;;;;;;5114464;28;20496;-78
2023/05/28 02:06:04;;;;;;;5.55;3.35;;;;;;;;;;5114947;28;20460;-79
2023/05/28 02:08:29;;;;;;;9.88;4.97;;;;;;;;;;5096245;28;20019;-78
2023/05/28 02:10:54;;;;;;;10.52;4.45;;;;;;;;;;5096204;28;20023;-79
2023/05/28 02:13:20;;;;;;;7.37;3.73;;;;;;;;;;5114413;28;20062;-78
2023/05/28 02:15:46;;;;;;;12.52;4.70;;;;;;;;;;5114656;28;20567;-78
2023/05/28 02:18:11;;;;;;;11.23;4.88;;;;;;;;;;5114194;28;20016;-78
2023/05/28 02:20:36;;;;;;;9.63;5.32;;;;;;;;;;5114227;28;20051;-80
2023/05/28 02:23:01;;;;;;;6.38;3.88;;;;;;;;;;5114445;28;20491;-78
2023/05/28 02:25:27;;;;;;;7.95;3.88;;;;;;;;;;5114031;28;20483;-77
2023/05/28 02:27:52;;;;;;;9.50;4.75;;;;;;;;;;5096075;28;20161;-77
2023/05/28 02:30:17;;;;;;;8.32;4.10;;;;;;;;;;5113719;28;20016;-78
2023/05/28 02:32:42;;;;;;;9.07;4.40;;;;;;;;;;5095555;28;20357;-76
2023/05/28 02:35:08;;;;;;;11.02;4.43;;;;;;;;;;5095342;28;20027;-78
2023/05/28 02:37:33;;;;;;;10.57;4.32;;;;;;;;;;5114275;28;20027;-76
2023/05/28 02:39:58;;;;;;;10.70;4.38;;;;;;;;;;5113635;28;20038;-79
2023/05/28 02:42:23;;;;;;;9.45;4.03;;;;;;;;;;5113477;28;20016;-80
2023/05/28 02:44:49;;;;;;;10.70;4.47;;;;;;;;;;5113633;28;20371;-78
2023/05/28 02:47:14;;;;;;;8.45;4.13;;;;;;;;;;5113823;28;20020;-80
2023/05/28 02:49:39;;;;;;;11.38;4.82;;;;;;;;;;5113813;28;20080;-79
2023/05/28 02:52:05;;;;;;;8.50;4.30;;;;;;;;;;5113436;28;20023;-79
2023/05/28 02:54:30;;;;;;;8.52;4.22;;;;;;;;;;5113918;28;20016;-79
2023/05/28 02:56:55;;;;;;;8.00;4.13;;;;;;;;;;5113489;28;20097;-79
2023/05/28 02:59:20;;;;;;;7.65;5.43;;;;;;;;;;5113327;28;20047;-79
2023/05/28 03:01:46;;;;;;;8.65;4.63;;;;;;;;;;5113137;28;20020;-76
2023/05/28 03:04:12;;;;;;;8.57;4.65;;;;;;;;;;5113406;28;20048;-79
2023/05/28 03:06:37;;;;;;;8.93;5.07;;;;;;;;;;5113299;28;20476;-80
2023/05/28 03:09:03;;;;;;;8.18;4.18;;;;;;;;;;5113463;28;20428;-77
2023/05/28 03:11:28;;;;;;;10.18;4.78;;;;;;;;;;5113303;28;20058;-76
2023/05/28 03:13:53;;;;;;;10.38;4.93;;;;;;;;;;5113264;28;20019;-77
2023/05/28 03:16:19;;;;;;;11.65;4.75;;;;;;;;;;5113218;28;20488;-78
2023/05/28 03:18:44;;;;;;;8.43;4.57;;;;;;;;;;5094716;28;20024;-77
2023/05/28 03:21:09;;;;;;;10.95;5.72;;;;;;;;;;5113124;28;20027;-77
2023/05/28 03:23:34;;;;;;;9.25;4.93;;;;;;;;;;5113067;28;20023;-78
2023/05/28 03:26:00;;;;;;;10.20;4.55;;;;;;;;;;5113124;28;20110;-77
2023/05/28 03:28:25;;;;;;;12.30;5.15;;;;;;;;;;5113206;28;20019;-78
2023/05/28 03:30:50;;;;;;;11.20;5.68;;;;;;;;;;5094861;28;20024;-78
2023/05/28 03:33:16;;;;;;;12.50;5.97;;;;;;;;;;5113013;28;20038;-78
2023/05/28 03:35:41;;;;;;;9.45;4.35;;;;;;;;;;5113162;28;20089;-78
2023/05/28 03:38:06;;;;;;;7.47;4.63;;;;;;;;;;5112978;28;20027;-79
2023/05/28 03:40:32;;;;;;;8.55;5.20;;;;;;;;;;5113064;28;20019;-79
2023/05/28 03:42:57;;;;;;;10.68;5.25;;;;;;;;;;5112877;28;20076;-78
2023/05/28 03:45:22;;;;;;;9.95;4.68;;;;;;;;;;5113125;28;20059;-77
2023/05/28 03:47:48;;;;;;;9.55;4.90;;;;;;;;;;5117578;28;20094;-77
2023/05/28 03:50:13;;;;;;;10.07;5.07;;;;;;;;;;5117421;28;20466;-78
2023/05/28 03:52:38;;;;;;;10.70;4.40;;;;;;;;;;5098773;28;20031;-79
2023/05/28 03:55:04;;;;;;;9.13;4.13;;;;;;;;;;5117155;28;20030;-78
2023/05/28 03:57:29;;;;;;;10.52;4.85;;;;;;;;;;5116933;28;20023;-79
2023/05/28 03:59:56;;;;;;;14.98;5.75;;;;;;;;;;5116695;28;20551;-78
2023/05/28 04:02:22;;;;;;;10.20;7.28;;;;;;;;;;5116671;28;20110;-78
2023/05/28 04:04:48;;;;;;;11.02;7.03;;;;;;;;;;5117164;28;20067;-79
2023/05/28 04:07:14;;;;;;;10.05;6.30;;;;;;;;;;5098415;28;20016;-78
2023/05/28 04:09:40;;;;;;;11.10;7.00;;;;;;;;;;5116519;28;20023;-79
2023/05/28 04:12:06;;;;;;;10.73;5.72;;;;;;;;;;5116611;28;20426;-78
2023/05/28 04:14:31;;;;;;;11.70;6.03;;;;;;;;;;5116562;28;20019;-78
2023/05/28 04:16:57;;;;;;;13.60;6.43;;;;;;;;;;5116722;28;20487;-79
2023/05/28 04:19:23;;;;;;;12.02;6.60;;;;;;;;;;5116980;28;20016;-78
2023/05/28 04:21:48;;;;;;;10.90;5.88;;;;;;;;;;5116886;28;20364;-78
2023/05/28 04:24:13;;;;;;;8.63;5.57;;;;;;;;;;5116843;28;20015;-79
2023/05/28 04:26:38;;;;;;;9.30;5.03;;;;;;;;;;5116533;28;20024;-79
2023/05/28 04:29:04;;;;;;;12.10;5.47;;;;;;;;;;5116574;28;20265;-78
2023/05/28 04:31:29;;;;;;;7.85;4.85;;;;;;;;;;5116581;28;20407;-78
2023/05/28 04:33:54;;;;;;;9.60;4.70;;;;;;;;;;5098160;28;20115;-77
2023/05/28 04:36:19;;;;;;;8.70;4.43;;;;;;;;;;5098509;28;20024;-78
2023/05/28 04:38:45;;;;;;;9.65;4.72;;;;;;;;;;5116496;28;20265;-80
2023/05/28 04:41:13;;;;;;;8.20;4.80;;;;;;;;;;5116501;28;20039;-78
2023/05/28 04:43:39;;;;;;;10.07;4.78;;;;;;;;;;5116463;28;20383;-78
2023/05/28 04:46:04;;;;;;;11.43;5.43;;;;;;;;;;5117826;28;20039;-78
2023/05/28 04:48:35;;;;;;;9.20;4.45;;;;;;;;;;5119044;28;20088;-78
2023/05/28 04:51:00;;;;;;;7.28;4.45;;;;;;;;;;5119513;28;20022;-79
2023/05/28 04:53:25;;;;;;;8.80;4.50;;;;;;;;;;5119339;28;20023;-76
2023/05/28 04:55:51;;;;;;;9.32;4.80;;;;;;;;;;5116856;28;20422;-79
2023/05/28 04:58:17;;;;;;;5.45;3.50;;;;;;;;;;5115460;28;20480;-80
2023/05/28 05:00:42;;;;;;;9.35;4.28;;;;;;;;;;5098643;28;20127;-82
2023/05/28 05:03:08;;;;;;;7.85;3.90;;;;;;;;;;5115873;28;20027;-79
2023/05/28 05:05:33;;;;;;;8.43;4.82;;;;;;;;;;5115543;28;20050;-79
2023/05/28 05:07:59;;;;;;;7.78;3.78;;;;;;;;;;5115975;28;20016;-80
2023/05/28 05:10:25;;;;;;;9.23;4.45;;;;;;;;;;5116044;28;20100;-78
2023/05/28 05:12:50;;;;;;;7.38;4.28;;;;;;;;;;5115718;28;20069;-78
2023/05/28 05:15:15;;;;;;;12.68;4.43;;;;;;;;;;5115503;28;20020;-78
2023/05/28 05:17:41;;;;;;;7.13;4.30;;;;;;;;;;5115742;28;20035;-79
2023/05/28 05:20:07;;;;;;;9.90;4.28;;;;;;;;;;5115525;28;20028;-79
2023/05/28 05:22:32;;;;;;;6.45;3.88;;;;;;;;;;5115031;28;20016;-79
2023/05/28 05:24:57;;;;;;;7.07;3.55;;;;;;;;;;5115375;28;20419;-80
2023/05/28 05:27:22;;;;;;;8.73;3.77;;;;;;;;;;5115888;28;20012;-80
2023/05/28 05:29:48;;;;;;;8.27;4.50;;;;;;;;;;5115504;28;20756;-79
2023/05/28 05:32:13;;;;;;;8.73;4.35;;;;;;;;;;5115063;28;20107;-77
2023/05/28 05:34:38;;;;;;;10.15;4.85;;;;;;;;;;5115111;28;20020;-80
2023/05/28 05:37:04;;;;;;;8.18;4.70;;;;;;;;;;5115206;28;20015;-78
2023/05/28 05:39:29;;;;;;;7.43;4.32;;;;;;;;;;5115120;28;20421;-79
2023/05/28 05:41:55;;;;;;;10.73;4.28;;;;;;;;;;5115061;28;20019;-80
2023/05/28 05:44:20;;;;;;;8.48;4.28;;;;;;;;;;5115042;28;20012;-77
2023/05/28 05:46:46;;;;;;;10.43;3.92;;;;;;;;;;5114878;28;20168;-78
2023/05/28 05:49:11;;;;;;;8.47;4.13;;;;;;;;;;5114849;28;20152;-80
2023/05/28 05:51:36;;;;;;;10.32;4.70;;;;;;;;;;5114920;28;20273;-79
2023/05/28 05:54:04;;;;;;;9.35;4.03;;;;;;;;;;5115258;28;20019;-80
2023/05/28 05:56:30;;;;;;;6.43;3.60;;;;;;;;;;5114953;28;20019;-80
2023/05/28 05:58:57;;;;;;;9.07;4.20;;;;;;;;;;5114635;28;20042;-81
2023/05/28 06:01:22;;;;;;;7.68;4.35;;;;;;;;;;5096335;28;20024;-79
2023/05/28 06:03:48;;;;;;;7.05;3.67;;;;;;;;;;5115221;28;20045;-81
2023/05/28 06:06:13;;;;;;;7.07;3.90;;;;;;;;;;5114701;28;20368;-81
2023/05/28 06:08:39;;;;;;;7.07;4.07;;;;;;;;;;5114368;28;20054;-80
2023/05/28 06:11:04;;;;;;;6.45;3.63;;;;;;;;;;5114650;28;20598;-80
2023/05/28 06:13:29;;;;;;;7.55;3.67;;;;;;;;;;5114693;28;20027;-82
2023/05/28 06:15:55;;;;;;;10.43;4.55;;;;;;;;;;5096463;28;20019;-82
2023/05/28 06:18:21;;;;;;;6.63;3.45;;;;;;;;;;5114817;28;20020;-81
2023/05/28 06:20:46;;;;;;;10.55;4.07;;;;;;;;;;5096222;28;20026;-81
2023/05/28 06:23:12;;;;;;;6.28;3.75;;;;;;;;;;5095968;28;20019;-79
2023/05/28 06:25:37;;;;;;;11.20;4.20;;;;;;;;;;5114451;28;20060;-80
2023/05/28 06:28:02;;;;;;;4.93;3.17;;;;;;;;;;5095974;28;20265;-80
2023/05/28 06:30:28;;;;;;;6.18;3.20;;;;;;;;;;5114497;28;20334;-81
2023/05/28 06:32:53;;;;;;;6.85;3.88;;;;;;;;;;5114448;28;20064;-81
2023/05/28 06:35:18;;;;;;;6.73;3.20;;;;;;;;;;5114227;28;20011;-82
2023/05/28 06:37:43;;;;;;;4.73;3.10;;;;;;;;;;5114173;28;20020;-81
2023/05/28 06:40:10;;;;;;;6.67;3.13;;;;;;;;;;5114207;28;20015;-80
2023/05/28 06:42:35;;;;;;;7.22;3.22;;;;;;;;;;5114396;28;20281;-81
2023/05/28 06:45:01;;;;;;;9.00;2.97;;;;;;;;;;5095808;28;20080;-81
2023/05/28 06:47:27;;;;;;;6.10;3.28;;;;;;;;;;5096339;28;20437;-81
2023/05/28 06:49:53;;;;;;;6.35;3.30;;;;;;;;;;5114254;28;20406;-84
2023/05/28 06:52:19;;;;;;;3.87;3.20;;;;;;;;;;5114129;28;20075;-83
2023/05/28 06:54:44;;;;;;;4.47;3.05;;;;;;;;;;5113893;28;20016;-81
2023/05/28 06:57:09;;;;;;;4.78;2.78;;;;;;;;;;5113855;28;20092;-80
2023/05/28 06:59:35;;;;;;;4.50;3.17;;;;;;;;;;5113738;28;20035;-81
2023/05/28 07:02:00;;;;;;;5.40;2.92;;;;;;;;;;5114089;28;20452;-82
2023/05/28 07:04:25;;;;;;;12.67;3.10;;;;;;;;;;5113776;28;20023;-83
2023/05/28 07:06:51;;;;;;;5.13;3.13;;;;;;;;;;5113819;28;20076;-82
2023/05/28 07:09:17;;;;;;;4.15;2.35;;;;;;;;;;5113761;28;20066;-82
2023/05/28 07:11:42;;;;;;;4.32;2.83;;;;;;;;;;5113565;28;20112;-78
2023/05/28 07:14:07;;;;;;;7.05;2.97;;;;;;;;;;5094984;28;20405;-76
2023/05/28 07:16:33;;;;;;;5.17;2.83;;;;;;;;;;5113540;28;20019;-79
2023/05/28 07:18:58;;;;;;;4.00;2.60;;;;;;;;;;5113862;28;20498;-79
2023/05/28 07:21:23;;;;;;;8.33;3.07;;;;;;;;;;5112769;28;20019;-77
2023/05/28 07:23:48;;;;;;;7.50;2.57;;;;;;;;;;5095186;28;20429;-77
2023/05/28 07:26:14;;;;;;;4.23;2.40;;;;;;;;;;5113184;28;20016;-78
2023/05/28 07:28:39;;;;;;;3.97;2.23;;;;;;;;;;5113343;28;20016;-80
2023/05/28 07:31:05;;;;;;;4.90;2.33;;;;;;;;;;5113905;28;20087;-75
2023/05/28 07:33:30;;;;;;;4.68;2.20;;;;;;;;;;5095186;28;20111;-77
2023/05/28 07:35:55;;;;;;;4.20;2.20;;;;;;;;;;5113296;28;20030;-77
2023/05/28 07:38:21;;;;;;;4.97;2.28;;;;;;;;;;5113428;28;20026;-77
2023/05/28 07:40:46;;;;;;;3.47;2.03;;;;;;;;;;5094817;28;20015;-77
2023/05/28 07:43:11;;;;;;;3.53;1.80;;;;;;;;;;5094678;28;20273;-76
2023/05/28 07:45:37;;;;;;;3.37;2.23;;;;;;;;;;5113172;28;20046;-78
2023/05/28 07:48:02;;;;;;;4.40;2.00;;;;;;;;;;5113061;28;20327;-77
2023/05/28 07:50:28;;;;;;;3.97;1.90;;;;;;;;;;5113476;28;20261;-78
2023/05/28 07:52:53;;;;;;;9.45;1.92;;;;;;;;;;5113290;28;20281;-77
2023/05/28 07:55:18;;;;;;;3.17;2.05;;;;;;;;;;5113188;28;20012;-77
2023/05/28 07:57:43;;;;;;;6.00;1.90;;;;;;;;;;5113321;28;20016;-75
2023/05/28 08:00:15;;;;;;;2.80;1.80;;;;;;;;;;5113113;28;20080;-76
2023/05/28 08:02:41;;;;;;;3.25;1.80;;;;;;;;;;5095457;28;20379;-76
2023/05/28 08:05:07;;;;;;;4.40;1.77;;;;;;;;;;5113318;28;20147;-77
2023/05/28 08:07:33;;;;;;;5.03;1.88;;;;;;;;;;5113158;28;20054;-77
2023/05/28 08:09:58;;;;;;;2.63;1.80;;;;;;;;;;5113002;28;20043;-77
2023/05/28 08:12:23;;;;;;;3.00;1.77;;;;;;;;;;5112910;28;20031;-76
2023/05/28 08:14:50;;;;;;;5.00;2.10;;;;;;;;;;5113185;28;20019;-77
2023/05/28 08:17:16;;;;;;;3.35;2.40;;;;;;;;;;5094592;28;20443;-75
2023/05/28 08:19:41;;;;;;;3.58;1.45;;;;;;;;;;5094691;28;20055;-77
2023/05/28 08:22:06;;;;;;;5.83;1.73;;;;;;;;;;5113025;28;20016;-77
2023/05/28 08:24:31;;;;;;;6.47;1.80;;;;;;;;;;5112755;28;20269;-76
2023/05/28 08:26:57;;;;;;;2.17;1.73;;;;;;;;;;5112893;28;20034;-77
2023/05/28 08:29:22;;;;;;;7.80;1.90;;;;;;;;;;5112589;28;20024;-76
2023/05/28 08:31:47;;;;;;;2.65;1.58;;;;;;;;;;5078881;28;20277;-78
2023/05/28 08:34:12;;;;;;;2.03;1.50;;;;;;;;;;5098419;28;20149;-78
2023/05/28 08:36:38;;;;;;;3.77;1.63;;;;;;;;;;5098411;28;20027;-79
2023/05/28 08:39:04;;;;;;;2.10;1.38;;;;;;;;;;5098106;28;20024;-78
2023/05/28 08:41:29;;;;;;;2.38;1.15;;;;;;;;;;5116207;28;20023;-77
2023/05/28 08:43:54;;;;;;;6.53;1.50;;;;;;;;;;5116423;28;20020;-75
2023/05/28 08:46:20;;;;;;;2.67;1.27;;;;;;;;;;5116459;28;20262;-75
2023/05/28 08:48:47;;;;;;;4.45;1.52;;;;;;;;;;5098171;28;20837;-75
2023/05/28 08:51:12;;;;;;;3.10;1.63;;;;;;;;;;5116261;28;20035;-79
2023/05/28 08:53:43;;;;;;;4.65;1.80;;;;;;;;;;5116537;28;20016;-76
2023/05/28 08:56:09;;;;;;;3.80;1.40;;;;;;;;;;5098469;28;20035;-77
2023/05/28 08:58:41;;;;;;;3.47;1.30;;;;;;;;;;5115879;28;20027;-78
2023/05/28 09:01:07;;;;;;;4.15;1.17;;;;;;;;;;5116180;28;20027;-77
2023/05/28 09:03:33;;;;;;;3.47;1.40;;;;;;;;;;5115924;28;20078;-76
2023/05/28 09:05:58;;;;;;;5.65;1.60;;;;;;;;;;5115954;28;20055;-78
2023/05/28 09:08:24;;;;;;;2.55;1.20;;;;;;;;;;5115672;28;20459;-77
2023/05/28 09:10:49;;;;;;;2.67;1.33;;;;;;;;;;5115927;28;20034;-76
2023/05/28 09:13:19;;;;;;;3.90;1.30;;;;;;;;;;5115211;28;20509;-77
2023/05/28 09:15:49;;;;;;;3.37;1.37;;;;;;;;;;5115244;28;20281;-74
2023/05/28 09:18:18;;;;;;;1.70;1.15;;;;;;;;;;5115829;28;20042;-75
2023/05/28 09:20:44;;;;;;;3.85;1.50;;;;;;;;;;5115832;28;20016;-76
2023/05/28 09:23:09;;;;;;;3.03;1.50;;;;;;;;;;5115671;28;20019;-74
2023/05/28 09:25:35;;;;;;;3.13;1.42;;;;;;;;;;5115706;28;20753;-73
2023/05/28 09:28:01;;;;;;;2.17;1.48;;;;;;;;;;5115686;28;20107;-74
2023/05/28 09:30:29;;;;;;;1.90;1.42;;;;;;;;;;5115455;28;20066;-75
2023/05/28 09:33:01;;;;;;;3.40;1.27;;;;;;;;;;5115354;28;20015;-75
2023/05/28 09:35:26;;;;;;;2.40;1.50;;;;;;;;;;5115385;28;20401;-76
2023/05/28 09:38:01;;;;;;;4.38;1.55;;;;;;;;;;5115204;28;20033;-76
2023/05/28 09:40:26;;;;;;;6.00;1.83;;;;;;;;;;5115506;28;20016;-76
2023/05/28 09:42:52;;;;;;;2.72;1.58;;;;;;;;;;5114970;28;20431;-77
2023/05/28 09:45:22;;;;;;;2.92;1.67;;;;;;;;;;5096538;28;20032;-74
2023/05/28 09:47:52;;;;;;;4.45;1.40;;;;;;;;;;5115616;28;20020;-75
2023/05/28 09:50:19;;;;;;;1.73;1.50;;;;;;;;;;5115204;28;20027;-78
2023/05/28 09:52:48;;;;;;;3.50;1.40;;;;;;;;;;5114778;28;20486;-74
2023/05/28 09:55:15;;;;;;;4.85;1.58;;;;;;;;;;5115215;28;20028;-77
2023/05/28 09:57:52;;;;;;;3.05;1.20;;;;;;;;;;5115008;28;20047;-74
2023/05/28 10:00:22;;;;;;;1.80;1.40;;;;;;;;;;5114849;28;20047;-74
2023/05/28 10:03:10;;;;;;;3.33;1.83;;;;;;;;;;5096554;28;20054;-75
2023/05/28 10:05:44;;;;;;;4.28;1.70;;;;;;;;;;5114822;28;20472;-75
2023/05/28 10:08:15;;;;;;;3.88;1.85;;;;;;;;;;5096942;28;20035;-76
2023/05/28 10:10:42;;;;;;;5.18;1.73;;;;;;;;;;5115039;28;20012;-75
2023/05/28 10:13:11;;;;;;;2.58;1.27;;;;;;;;;;5096459;28;20027;-74
2023/05/28 10:15:38;;;;;;;4.65;1.65;;;;;;;;;;5097357;28;20488;-74
2023/05/28 10:18:05;;;;;;;7.18;1.30;;;;;;;;;;5114867;28;20046;-75
2023/05/28 10:20:46;;;;;;;4.18;1.50;;;;;;;;;;5114968;28;20012;-75
2023/05/28 10:23:12;;;;;;;5.07;1.48;;;;;;;;;;5114841;28;20027;-76
2023/05/28 10:25:38;;;;;;;3.00;1.45;;;;;;;;;;5114550;28;20015;-76
2023/05/28 10:28:03;;;;;;;1.70;1.10;;;;;;;;;;5114365;28;20024;-75
2023/05/28 10:30:33;;;;;;;3.20;1.50;;;;;;;;;;5114293;28;20035;-77
2023/05/28 10:33:07;;;;;;;3.88;1.52;;;;;;;;;;5114807;28;20370;-75
2023/05/28 10:35:35;;;;;;;3.75;1.40;;;;;;;;;;5114321;28;20024;-75
2023/05/28 10:38:08;;;;;;;7.72;1.35;;;;;;;;;;5094837;28;20023;-76
2023/05/28 10:40:51;;;;;;;4.38;1.77;;;;;;;;;;5096241;28;20154;-75
2023/05/28 10:43:35;;;;;;;3.95;1.42;;;;;;;;;;5114008;28;20103;-74
2023/05/28 10:46:00;;;;;;;3.72;1.77;;;;;;;;;;5114065;28;20528;-77
2023/05/28 10:48:30;;;;;;;4.27;1.57;;;;;;;;;;5113863;28;20104;-75
2023/05/28 10:50:56;;;;;;;5.60;1.33;;;;;;;;;;5114027;28;20266;-74
2023/05/28 10:53:21;;;;;;;2.53;1.60;;;;;;;;;;5099518;28;20107;-72
2023/05/28 10:55:46;;;;;;;4.47;1.70;;;;;;;;;;5074127;28;20016;-73
2023/05/28 10:58:21;;;;;;;3.40;1.50;;;;;;;;;;5074190;28;20262;-73
2023/05/28 11:00:47;;;;;;;3.63;1.60;;;;;;;;;;5091905;28;20048;-74
2023/05/28 11:03:14;;;;;;;2.35;1.40;;;;;;;;;;5092908;28;20030;-75
2023/05/28 11:05:39;;;;;;;6.13;1.52;;;;;;;;;;5093697;28;20023;-76
2023/05/28 11:08:06;;;;;;;8.40;1.53;;;;;;;;;;5093495;28;20070;-72
2023/05/28 11:10:32;;;;;;;4.55;1.45;;;;;;;;;;5093198;28;20762;-73
2023/05/28 11:12:57;;;;;;;3.92;1.52;;;;;;;;;;5106523;28;20103;-73
2023/05/28 11:15:23;;;;;;;1.80;1.30;;;;;;;;;;5111354;28;20457;-75
2023/05/28 11:17:49;;;;;;;1.40;1.13;;;;;;;;;;5111102;28;20023;-75
2023/05/28 11:20:21;;;;;;;4.38;1.20;;;;;;;;;;5111667;28;20272;-73
2023/05/28 11:22:47;;;;;;;3.08;1.73;;;;;;;;;;5111941;28;20038;-72
2023/05/28 11:25:13;;;;;;;4.50;1.30;;;;;;;;;;5112038;28;20464;-72
2023/05/28 11:27:40;;;;;;;2.05;1.10;;;;;;;;;;5112263;28;20355;-73
2023/05/28 11:30:12;;;;;;;4.05;1.48;;;;;;;;;;5113334;28;20053;-73
2023/05/28 11:32:38;;;;;;;4.53;1.38;;;;;;;;;;5113325;28;20016;-76
2023/05/28 11:35:04;;;;;;;1.83;1.35;;;;;;;;;;5113764;28;20019;-75
2023/05/28 11:37:39;;;;;;;2.13;1.17;;;;;;;;;;5113814;28;20015;-72
2023/05/28 11:40:05;;;;;;;1.98;1.20;;;;;;;;;;5113743;28;20360;-75
2023/05/28 11:42:31;;;;;;;4.15;1.27;;;;;;;;;;5113323;28;20012;-75
2023/05/28 11:44:57;;;;;;;1.73;1.20;;;;;;;;;;5113471;28;20038;-75
2023/05/28 11:47:23;;;;;;;3.20;1.52;;;;;;;;;;5113528;28;20019;-75
2023/05/28 11:49:48;;;;;;;3.15;1.13;;;;;;;;;;5113531;28;20020;-76
2023/05/28 11:52:20;;;;;;;6.57;1.27;;;;;;;;;;5113278;28;20367;-74
2023/05/28 11:54:47;;;;;;;4.13;1.63;;;;;;;;;;5113294;28;20043;-74
2023/05/28 11:57:21;;;;;;;1.70;1.52;;;;;;;;;;5113238;28;20044;-76
2023/05/28 11:59:53;;;;;;;2.92;1.60;;;;;;;;;;5113626;28;20123;-75
2023/05/28 12:02:21;;;;;;;1.73;1.00;;;;;;;;;;5113533;28;20557;-75
2023/05/28 12:04:54;;;;;;;2.97;1.38;;;;;;;;;;5113387;28;20118;-75
2023/05/28 12:07:20;;;;;;;4.22;1.42;;;;;;;;;;5096833;28;20069;-75
2023/05/28 12:09:45;;;;;;;3.13;1.27;;;;;;;;;;5116932;28;20023;-74
2023/05/28 12:12:14;;;;;;;1.88;1.20;;;;;;;;;;5117642;28;20059;-76
2023/05/28 12:14:39;;;;;;;3.13;1.13;;;;;;;;;;5099652;28;20042;-73
2023/05/28 12:17:06;;;;;;;3.15;1.33;;;;;;;;;;5117197;28;20441;-77
2023/05/28 12:19:33;;;;;;;3.20;1.63;;;;;;;;;;5117470;28;20030;-75
2023/05/28 12:21:59;;;;;;;3.20;1.45;;;;;;;;;;5096717;28;20031;-73
2023/05/28 12:24:26;;;;;;;2.20;1.40;;;;;;;;;;5077748;28;20461;-74
2023/05/28 12:26:52;;;;;;;4.57;1.40;;;;;;;;;;5078238;28;20024;-73
2023/05/28 12:29:17;;;;;;;4.87;1.60;;;;;;;;;;5096882;28;20018;-76
2023/05/28 12:31:42;;;;;;;5.20;1.60;;;;;;;;;;5096249;28;20792;-75
2023/05/28 12:34:08;;;;;;;4.47;1.30;;;;;;;;;;5096278;28;20016;-73
2023/05/28 12:36:34;;;;;;;2.10;1.17;;;;;;;;;;5095982;28;20024;-69
2023/05/28 12:38:59;;;;;;;3.00;1.20;;;;;;;;;;5095705;28;20100;-71
2023/05/28 12:41:25;;;;;;;2.88;1.52;;;;;;;;;;5096051;28;20061;-69
2023/05/28 12:43:50;;;;;;;2.95;1.67;;;;;;;;;;5095845;28;20441;-71
2023/05/28 12:46:15;;;;;;;4.57;2.27;;;;;;;;;;5095848;28;20028;-73
2023/05/28 12:48:41;;;;;;;5.75;1.38;;;;;;;;;;5095680;28;20276;-71
2023/05/28 12:51:06;;;;;;;4.38;1.50;;;;;;;;;;5095799;28;20080;-71
2023/05/28 12:53:31;;;;;;;2.43;1.40;;;;;;;;;;5095401;28;20354;-71
2023/05/28 12:55:56;;;;;;;2.80;1.50;;;;;;;;;;5077604;28;20273;-71
2023/05/28 12:58:23;;;;;;;3.80;1.23;;;;;;;;;;5095585;28;20281;-70
2023/05/28 13:00:49;;;;;;;3.42;1.50;;;;;;;;;;5095354;28;20074;-73
2023/05/28 13:03:14;;;;;;;4.85;2.45;;;;;;;;;;5095607;28;20024;-70
2023/05/28 13:05:39;;;;;;;3.50;1.77;;;;;;;;;;5095519;28;20103;-72
2023/05/28 13:08:05;;;;;;;2.40;1.10;;;;;;;;;;5095835;28;20380;-70
2023/05/28 13:10:30;;;;;;;4.00;1.50;;;;;;;;;;5096301;28;20444;-70
2023/05/28 13:12:55;;;;;;;4.72;1.38;;;;;;;;;;5095861;28;20375;-72
2023/05/28 13:15:21;;;;;;;5.13;1.53;;;;;;;;;;5095364;28;20020;-73
2023/05/28 13:17:46;;;;;;;2.13;1.40;;;;;;;;;;5094913;28;20265;-69
2023/05/28 13:20:12;;;;;;;3.58;1.58;;;;;;;;;;5076460;28;20050;-72
2023/05/28 13:22:37;;;;;;;4.60;1.58;;;;;;;;;;5095313;28;20024;-73
2023/05/28 13:25:03;;;;;;;2.97;1.50;;;;;;;;;;5095212;28;20020;-72
2023/05/28 13:27:28;;;;;;;6.07;1.88;;;;;;;;;;5095269;28;20032;-72
2023/05/28 13:29:53;;;;;;;8.27;1.55;;;;;;;;;;5095484;28;20016;-71
2023/05/28 13:32:19;;;;;;;3.20;1.33;;;;;;;;;;5097653;28;20024;-75
2023/05/28 13:34:45;;;;;;;3.70;2.20;;;;;;;;;;5100728;28;20266;-75
2023/05/28 13:37:10;;;;;;;4.18;1.95;;;;;;;;;;5099729;28;20087;-76
2023/05/28 13:39:35;;;;;;;1.95;1.55;;;;;;;;;;5099648;28;20024;-74
2023/05/28 13:42:03;;;;;;;3.33;1.70;;;;;;;;;;5096151;28;20020;-74
2023/05/28 13:44:28;;;;;;;3.17;1.52;;;;;;;;;;5096252;28;20027;-73
2023/05/28 13:46:54;;;;;;;3.58;1.50;;;;;;;;;;5080587;28;20040;-74
2023/05/28 13:49:19;;;;;;;4.28;1.45;;;;;;;;;;5102668;28;20408;-81
2023/05/28 13:51:45;;;;;;;3.85;1.40;;;;;;;;;;5118663;28;20577;-80
2023/05/28 13:54:10;;;;;;;3.47;1.33;;;;;;;;;;5116341;28;20019;-78
2023/05/28 13:56:36;;;;;;;4.38;1.60;;;;;;;;;;5115944;28;20019;-77
2023/05/28 13:59:01;;;;;;;3.55;1.75;;;;;;;;;;5115836;28;20370;-81
2023/05/28 14:01:26;;;;;;;2.15;1.15;;;;;;;;;;5116337;28;20426;-77
2023/05/28 14:03:51;;;;;;;3.83;1.42;;;;;;;;;;5114112;28;20410;-77
2023/05/28 14:06:17;;;;;;;2.75;1.67;;;;;;;;;;5115412;28;20026;-75
2023/05/28 14:08:42;;;;;;;8.00;1.47;;;;;;;;;;5115145;28;20050;-78
2023/05/28 14:11:07;;;;;;;2.83;1.43;;;;;;;;;;5106993;28;20279;-77
2023/05/28 14:13:33;;;;;;;2.00;0.95;;;;;;;;;;5106652;28;20281;-78
2023/05/28 14:15:58;;;;;;;2.38;1.15;;;;;;;;;;5098969;28;20046;-79
2023/05/28 14:18:24;;;;;;;5.20;1.50;;;;;;;;;;5079587;28;20111;-78
2023/05/28 14:20:49;;;;;;;7.57;1.80;;;;;;;;;;5092081;28;20107;-77
2023/05/28 14:23:14;;;;;;;1.67;1.07;;;;;;;;;;5115042;28;20024;-77
2023/05/28 14:25:40;;;;;;;4.00;1.63;;;;;;;;;;5114439;28;20292;-82
2023/05/28 14:28:05;;;;;;;8.18;1.85;;;;;;;;;;5115451;28;20020;-80
2023/05/28 14:30:30;;;;;;;6.93;1.88;;;;;;;;;;5114197;28;20045;-78
2023/05/28 14:32:56;;;;;;;3.37;1.70;;;;;;;;;;5114219;28;20016;-78
2023/05/28 14:35:21;;;;;;;2.40;1.13;;;;;;;;;;5114747;28;20329;-78